Time;durP1;ratioP1;P1;durP2;ratioP2;P2;SDS_P1;SDS_P2;PMS_P1;PMS_P2;Temp;Humidity;BMP_temperature;BMP_pressure;BME280_temperature;BME280_humidity;BME280_pressure;Samples;Min_cycle;Max_cycle;Signal;HPM_P1;HPM_P2
2021/07/24 00:01:19;;;;;;;12.95;12.35;;;22.40;59.00;;;;;;5054427;28;20037;-84
2021/07/24 00:03:45;;;;;;;12.68;12.07;;;22.40;59.00;;;;;;5037938;28;20029;-82
2021/07/24 00:06:11;;;;;;;12.57;11.98;;;22.40;59.10;;;;;;5056799;28;20036;-82
2021/07/24 00:08:37;;;;;;;12.30;11.70;;;22.40;59.10;;;;;;5055734;28;20495;-84
2021/07/24 00:11:04;;;;;;;11.93;11.40;;;22.30;59.10;;;;;;5035292;28;20075;-85
2021/07/24 00:13:35;;;;;;;12.75;12.15;;;22.30;59.20;;;;;;5040967;28;20037;-84
2021/07/24 00:16:01;;;;;;;12.55;11.95;;;22.30;59.20;;;;;;5038553;28;20041;-84
2021/07/24 00:18:27;;;;;;;12.48;11.88;;;22.20;59.20;;;;;;5038331;28;20462;-83
2021/07/24 00:20:53;;;;;;;12.35;11.75;;;22.20;59.20;;;;;;5056625;28;20035;-83
2021/07/24 00:23:19;;;;;;;12.10;11.50;;;22.20;59.30;;;;;;5053218;28;20017;-84
2021/07/24 00:25:45;;;;;;;12.55;11.95;;;22.20;59.40;;;;;;5056742;28;20032;-83
2021/07/24 00:28:11;;;;;;;12.23;11.60;;;22.10;59.40;;;;;;5054264;28;20044;-82
2021/07/24 00:30:41;;;;;;;12.23;11.63;;;22.10;59.40;;;;;;5021506;28;20402;-84
2021/07/24 00:33:08;;;;;;;12.93;12.17;;;22.10;59.50;;;;;;5038828;28;20397;-84
2021/07/24 00:35:34;;;;;;;13.77;13.00;;;22.00;59.50;;;;;;5034731;28;20421;-83
2021/07/24 00:38:01;;;;;;;12.05;11.48;;;22.00;59.50;;;;;;5034902;28;20033;-83
2021/07/24 00:40:29;;;;;;;12.52;11.82;;;22.00;59.60;;;;;;5057188;28;20482;-84
2021/07/24 00:42:56;;;;;;;12.05;11.50;;;22.00;59.60;;;;;;5037317;28;20037;-84
2021/07/24 00:45:22;;;;;;;13.02;12.40;;;22.00;59.60;;;;;;5021534;28;20025;-84
2021/07/24 00:48:06;;;;;;;12.93;12.05;;;21.90;59.60;;;;;;5038386;28;20527;-84
2021/07/24 00:50:32;;;;;;;12.35;11.75;;;21.80;59.70;;;;;;5054194;28;20036;-78
2021/07/24 00:53:10;;;;;;;13.60;12.45;;;21.80;59.70;;;;;;5035377;28;20355;-82
2021/07/24 00:55:36;;;;;;;11.40;10.90;;;21.80;59.80;;;;;;5056708;28;20040;-84
2021/07/24 00:58:27;;;;;;;11.40;10.90;;;21.80;59.80;;;;;;5038245;28;20041;-84
2021/07/24 01:00:54;;;;;;;11.63;11.02;;;21.70;59.90;;;;;;5055291;28;20029;-84
2021/07/24 01:03:20;;;;;;;10.57;10.07;;;21.70;59.90;;;;;;5055877;28;20029;-84
2021/07/24 01:05:48;;;;;;;10.88;10.38;;;21.70;60.00;;;;;;5038105;28;20032;-81
2021/07/24 01:08:14;;;;;;;11.23;10.73;;;21.70;60.00;;;;;;5033735;28;20030;-84
2021/07/24 01:10:40;;;;;;;10.65;10.15;;;21.60;60.00;;;;;;5023139;28;20033;-84
2021/07/24 01:13:07;;;;;;;11.98;11.38;;;21.60;60.00;;;;;;5055761;28;20025;-83
2021/07/24 01:15:33;;;;;;;10.00;9.40;;;21.60;60.00;;;;;;5035730;28;20040;-83
2021/07/24 01:17:59;;;;;;;11.25;10.63;;;21.60;60.10;;;;;;5055609;28;20024;-84
2021/07/24 01:20:25;;;;;;;11.20;10.70;;;21.60;60.10;;;;;;5051240;28;20021;-84
2021/07/24 01:22:52;;;;;;;11.05;10.55;;;21.60;60.10;;;;;;5036804;28;20034;-84
2021/07/24 01:25:18;;;;;;;11.75;11.23;;;21.50;60.10;;;;;;5036685;28;20351;-83
2021/07/24 01:27:45;;;;;;;12.05;11.45;;;21.60;60.20;;;;;;5055204;28;20029;-84
2021/07/24 01:30:11;;;;;;;10.63;10.13;;;21.50;60.20;;;;;;5054722;28;20077;-83
2021/07/24 01:32:38;;;;;;;11.48;10.35;;;21.50;60.30;;;;;;5054019;28;20045;-84
2021/07/24 01:35:04;;;;;;;10.73;10.23;;;21.50;60.30;;;;;;5017630;28;20041;-84
2021/07/24 01:37:30;;;;;;;11.02;10.52;;;21.50;60.40;;;;;;5038968;28;20035;-84
2021/07/24 01:39:57;;;;;;;10.65;10.15;;;21.40;60.40;;;;;;5037371;28;20386;-84
2021/07/24 01:42:23;;;;;;;12.05;11.45;;;21.40;60.50;;;;;;5023088;28;20037;-83
2021/07/24 01:44:49;;;;;;;10.98;10.48;;;21.40;60.50;;;;;;5054875;28;20020;-82
2021/07/24 01:47:15;;;;;;;14.30;10.38;;;21.40;60.70;;;;;;5050247;28;20485;-84
2021/07/24 01:52:48;;;;;;;9.43;9.02;;;21.30;60.70;;;;;;5056491;28;20136;-84
2021/07/24 01:55:34;;;;;;;10.82;10.20;;;21.30;60.80;;;;;;5025943;28;20029;-84
2021/07/24 01:58:02;;;;;;;9.50;9.10;;;21.30;60.80;;;;;;5037669;28;20033;-83
2021/07/24 02:00:29;;;;;;;9.80;9.30;;;21.30;60.80;;;;;;5035344;28;20037;-84
2021/07/24 02:02:55;;;;;;;10.40;9.90;;;21.30;60.80;;;;;;5011426;28;20021;-84
2021/07/24 02:05:27;;;;;;;9.40;9.00;;;21.20;60.80;;;;;;5041439;28;20048;-84
2021/07/24 02:07:54;;;;;;;9.85;9.38;;;21.20;60.90;;;;;;5031464;28;20370;-83
2021/07/24 02:10:20;;;;;;;9.63;9.15;;;21.20;60.90;;;;;;5030224;28;20032;-83
2021/07/24 02:12:46;;;;;;;8.60;8.20;;;21.20;61.00;;;;;;5045535;28;20043;-82
2021/07/24 02:15:12;;;;;;;9.95;9.45;;;21.10;61.00;;;;;;5046034;28;20021;-81
2021/07/24 02:17:38;;;;;;;10.60;9.77;;;21.10;61.10;;;;;;5029033;28;20017;-83
2021/07/24 02:20:05;;;;;;;9.80;9.40;;;21.10;61.10;;;;;;5029750;28;20044;-83
2021/07/24 02:22:31;;;;;;;9.40;9.00;;;21.10;61.20;;;;;;5049221;28;20025;-82
2021/07/24 02:24:57;;;;;;;8.82;8.43;;;21.10;61.20;;;;;;5046617;28;20025;-83
2021/07/24 02:27:23;;;;;;;8.23;7.75;;;21.00;61.20;;;;;;5028806;28;20033;-84
2021/07/24 02:29:49;;;;;;;8.07;7.68;;;21.00;61.30;;;;;;5014477;28;20041;-82
2021/07/24 02:32:17;;;;;;;8.10;7.70;;;21.00;61.30;;;;;;5045818;28;20041;-84
2021/07/24 02:34:44;;;;;;;8.50;8.10;;;21.00;61.40;;;;;;5031826;28;20033;-84
2021/07/24 02:37:10;;;;;;;8.35;7.95;;;20.90;61.40;;;;;;5031492;28;20036;-84
2021/07/24 02:39:36;;;;;;;8.45;7.95;;;20.90;61.40;;;;;;5035031;28;20033;-81
2021/07/24 02:42:02;;;;;;;8.15;7.75;;;20.90;61.40;;;;;;5054560;28;20032;-84
2021/07/24 02:44:28;;;;;;;8.20;7.80;;;20.90;61.50;;;;;;5051984;28;20021;-84
2021/07/24 02:46:54;;;;;;;8.38;7.97;;;20.80;61.50;;;;;;5034767;28;20397;-83
2021/07/24 02:49:21;;;;;;;7.97;7.47;;;20.80;61.60;;;;;;5052305;28;20032;-84
2021/07/24 02:51:47;;;;;;;7.57;7.28;;;20.80;61.70;;;;;;5036612;28;20044;-84
2021/07/24 02:54:13;;;;;;;8.30;7.82;;;20.80;61.70;;;;;;5054511;28;20036;-84
2021/07/24 02:56:39;;;;;;;7.40;7.10;;;20.70;61.70;;;;;;5053436;28;20029;-84
2021/07/24 02:59:05;;;;;;;7.68;7.32;;;20.70;61.80;;;;;;5050801;28;20044;-84
2021/07/24 03:01:31;;;;;;;7.70;7.30;;;20.70;61.80;;;;;;5042027;28;20033;-84
2021/07/24 03:03:57;;;;;;;9.68;7.57;;;20.70;61.90;;;;;;5039729;28;20040;-84
2021/07/24 03:06:23;;;;;;;8.02;7.63;;;20.70;61.90;;;;;;5039076;28;20025;-84
2021/07/24 03:08:49;;;;;;;8.23;7.82;;;20.70;62.00;;;;;;5057135;28;20067;-84
2021/07/24 03:11:16;;;;;;;7.20;6.90;;;20.70;62.10;;;;;;5052117;28;20037;-84
2021/07/24 03:13:42;;;;;;;7.50;7.18;;;20.70;62.10;;;;;;5025115;28;20029;-85
2021/07/24 03:16:08;;;;;;;7.63;7.32;;;20.70;62.10;;;;;;5055596;28;20037;-84
2021/07/24 03:18:34;;;;;;;7.20;6.90;;;20.60;62.00;;;;;;5057924;28;20029;-84
2021/07/24 03:21:00;;;;;;;6.90;6.60;;;20.60;62.10;;;;;;5058591;28;20029;-84
2021/07/24 03:23:27;;;;;;;7.35;7.03;;;20.60;62.10;;;;;;5055777;28;20371;-84
2021/07/24 03:25:53;;;;;;;7.75;7.40;;;20.70;62.20;;;;;;5039630;28;20032;-84
2021/07/24 03:28:19;;;;;;;7.65;7.25;;;20.60;62.20;;;;;;5059761;28;20390;-84
2021/07/24 03:30:45;;;;;;;7.30;7.00;;;20.70;62.20;;;;;;5057129;28;20041;-84
2021/07/24 03:33:11;;;;;;;7.50;7.20;;;20.60;62.30;;;;;;5057235;28;20474;-85
2021/07/24 03:35:37;;;;;;;7.70;7.30;;;20.60;62.20;;;;;;5056192;28;20033;-85
2021/07/24 03:38:04;;;;;;;7.82;7.30;;;20.60;62.30;;;;;;5054260;28;20051;-83
2021/07/24 03:40:31;;;;;;;8.10;7.28;;;20.60;62.30;;;;;;5041189;28;20047;-84
2021/07/24 03:42:57;;;;;;;7.35;7.05;;;20.60;62.30;;;;;;5057291;28;20021;-84
2021/07/24 03:45:23;;;;;;;8.15;7.65;;;20.60;62.40;;;;;;5038642;28;20033;-83
2021/07/24 03:47:49;;;;;;;8.02;7.53;;;20.60;62.40;;;;;;5039189;28;20028;-84
2021/07/24 03:50:15;;;;;;;7.78;7.43;;;20.60;62.50;;;;;;5051322;28;20021;-85
2021/07/24 03:52:41;;;;;;;7.47;7.18;;;20.60;62.50;;;;;;5040573;28;20044;-84
2021/07/24 03:55:08;;;;;;;7.55;7.22;;;20.60;62.50;;;;;;5055697;28;20025;-84
2021/07/24 03:57:34;;;;;;;7.10;6.80;;;20.60;62.50;;;;;;5039443;28;20033;-83
2021/07/24 04:00:03;;;;;;;7.85;7.47;;;20.60;62.50;;;;;;5057125;28;20366;-83
2021/07/24 04:02:29;;;;;;;7.80;7.40;;;20.60;62.60;;;;;;5053626;28;20126;-84
2021/07/24 04:04:56;;;;;;;7.25;6.95;;;20.60;62.70;;;;;;5055246;28;20033;-84
2021/07/24 04:07:22;;;;;;;7.35;7.00;;;20.60;62.70;;;;;;5058424;28;20048;-82
2021/07/24 04:09:48;;;;;;;7.00;6.70;;;20.60;62.70;;;;;;5022864;28;20029;-84
2021/07/24 04:12:14;;;;;;;7.22;6.93;;;20.50;62.80;;;;;;5055741;28;20036;-84
2021/07/24 04:14:41;;;;;;;6.95;6.65;;;20.50;62.80;;;;;;5038145;28;20032;-83
2021/07/24 04:17:07;;;;;;;7.40;7.10;;;20.60;62.90;;;;;;5034474;28;20045;-84
2021/07/24 04:19:34;;;;;;;7.25;6.95;;;20.60;63.00;;;;;;5041038;28;20040;-84
2021/07/24 04:22:00;;;;;;;7.53;7.03;;;20.50;63.00;;;;;;5056713;28;20029;-84
2021/07/24 04:24:26;;;;;;;10.02;6.85;;;20.50;63.10;;;;;;5056568;28;20397;-84
2021/07/24 04:26:52;;;;;;;7.35;7.05;;;20.50;63.10;;;;;;5038436;28;20039;-84
2021/07/24 04:29:18;;;;;;;7.10;6.70;;;20.50;63.20;;;;;;5051023;28;20032;-85
2021/07/24 04:31:44;;;;;;;7.25;6.90;;;20.40;63.10;;;;;;5056727;28;20049;-84
2021/07/24 04:34:10;;;;;;;7.15;6.85;;;20.40;63.20;;;;;;5023196;28;20037;-83
2021/07/24 04:36:37;;;;;;;7.45;7.05;;;20.40;63.20;;;;;;5056335;28;20025;-84
2021/07/24 04:39:03;;;;;;;6.70;6.40;;;20.40;63.30;;;;;;5056229;28;20024;-83
2021/07/24 04:41:29;;;;;;;7.00;6.60;;;20.50;63.30;;;;;;5036165;28;20025;-84
2021/07/24 04:43:55;;;;;;;6.90;6.60;;;20.40;63.30;;;;;;5054465;28;20037;-84
2021/07/24 04:46:21;;;;;;;6.95;6.63;;;20.50;63.40;;;;;;5053487;28;20478;-84
2021/07/24 04:48:47;;;;;;;7.38;6.72;;;20.50;63.40;;;;;;5055978;28;20029;-84
2021/07/24 04:51:15;;;;;;;7.22;6.82;;;20.40;63.40;;;;;;5055917;28;20041;-84
2021/07/24 04:53:42;;;;;;;7.13;6.82;;;20.40;63.40;;;;;;5054672;28;20029;-84
2021/07/24 04:56:08;;;;;;;18.30;6.78;;;20.50;63.50;;;;;;5017798;28;20479;-84
2021/07/24 04:58:35;;;;;;;6.50;6.20;;;20.40;63.50;;;;;;5040102;28;20025;-85
2021/07/24 05:01:01;;;;;;;6.70;6.40;;;20.40;63.50;;;;;;5020951;28;20037;-84
2021/07/24 05:03:27;;;;;;;6.70;6.40;;;20.50;63.60;;;;;;5021558;28;20017;-83
2021/07/24 05:05:53;;;;;;;6.75;6.45;;;20.50;63.50;;;;;;5055613;28;20039;-84
2021/07/24 05:08:21;;;;;;;6.97;6.60;;;20.50;63.60;;;;;;5052811;28;20374;-84
2021/07/24 05:10:47;;;;;;;6.78;6.47;;;20.50;63.60;;;;;;5022277;28;20040;-84
2021/07/24 05:13:13;;;;;;;6.65;6.35;;;20.50;63.70;;;;;;5054947;28;20398;-84
2021/07/24 05:15:39;;;;;;;6.07;5.78;;;20.50;63.70;;;;;;5054675;28;20025;-84
2021/07/24 05:18:05;;;;;;;6.15;5.85;;;20.50;63.80;;;;;;5055699;28;20024;-84
2021/07/24 05:20:31;;;;;;;6.68;6.28;;;20.50;63.80;;;;;;5053482;28;20040;-83
2021/07/24 05:22:58;;;;;;;6.38;6.07;;;20.50;63.80;;;;;;5053454;28;20378;-84
2021/07/24 05:25:24;;;;;;;6.85;6.45;;;20.60;63.80;;;;;;5057681;28;20359;-84
2021/07/24 05:27:50;;;;;;;6.28;5.97;;;20.60;63.70;;;;;;5037691;28;20040;-84
2021/07/24 05:30:16;;;;;;;6.57;6.28;;;20.70;63.70;;;;;;5054481;28;20029;-84
2021/07/24 05:32:42;;;;;;;8.25;6.30;;;20.70;63.70;;;;;;5020554;28;20052;-84
2021/07/24 05:35:09;;;;;;;6.50;6.20;;;20.80;63.60;;;;;;5051348;28;20021;-84
2021/07/24 05:37:35;;;;;;;18.75;6.60;;;20.80;63.60;;;;;;5039309;28;20478;-84
2021/07/24 05:40:01;;;;;;;6.82;6.53;;;20.80;63.60;;;;;;5037500;28;20527;-84
2021/07/24 05:42:27;;;;;;;6.57;6.28;;;20.80;63.60;;;;;;5054477;28;20033;-84
2021/07/24 05:44:54;;;;;;;6.78;6.47;;;20.80;63.60;;;;;;5054679;28;20496;-84
2021/07/24 05:47:20;;;;;;;7.15;6.85;;;20.90;63.70;;;;;;5031804;28;20041;-84
2021/07/24 05:49:46;;;;;;;7.28;6.78;;;20.90;63.70;;;;;;5038369;28;20465;-84
2021/07/24 05:52:12;;;;;;;6.20;5.90;;;20.90;63.70;;;;;;5055720;28;20041;-84
2021/07/24 05:54:39;;;;;;;7.57;7.18;;;21.00;63.70;;;;;;5036672;28;20041;-84
2021/07/24 05:57:05;;;;;;;6.40;6.10;;;21.00;63.70;;;;;;5055124;28;20036;-84
2021/07/24 05:59:33;;;;;;;7.35;7.00;;;21.00;63.60;;;;;;5053032;28;20029;-84
2021/07/24 06:01:59;;;;;;;6.50;6.20;;;21.00;63.60;;;;;;5052129;28;20036;-84
2021/07/24 06:04:25;;;;;;;6.88;6.57;;;21.10;63.60;;;;;;5056166;28;20047;-84
2021/07/24 06:06:51;;;;;;;6.97;6.68;;;21.10;63.60;;;;;;5036893;28;20028;-84
2021/07/24 06:09:17;;;;;;;6.78;6.47;;;21.10;63.50;;;;;;5036978;28;20040;-85
2021/07/24 06:11:43;;;;;;;8.35;7.95;;;21.10;63.50;;;;;;5036240;28;20043;-85
2021/07/24 06:14:09;;;;;;;7.40;7.10;;;21.20;63.50;;;;;;5032867;28;20021;-84
2021/07/24 06:16:39;;;;;;;7.78;7.40;;;21.20;63.50;;;;;;5037976;28;20036;-83
2021/07/24 06:19:05;;;;;;;8.38;7.97;;;21.20;63.50;;;;;;5054117;28;20041;-84
2021/07/24 06:21:31;;;;;;;7.38;6.97;;;21.30;63.50;;;;;;5054768;28;20044;-84
2021/07/24 06:23:57;;;;;;;7.13;6.82;;;21.30;63.50;;;;;;5054743;28;20031;-84
2021/07/24 06:26:23;;;;;;;7.60;7.20;;;21.30;63.50;;;;;;5017900;28;20041;-83
2021/07/24 06:28:49;;;;;;;8.38;7.97;;;21.30;63.50;;;;;;5037016;28;20036;-84
2021/07/24 06:31:15;;;;;;;8.13;7.72;;;21.40;63.50;;;;;;5053562;28;20048;-85
2021/07/24 06:33:41;;;;;;;8.10;7.47;;;21.50;63.40;;;;;;5036898;28;20485;-84
2021/07/24 06:36:07;;;;;;;6.75;6.45;;;21.60;63.20;;;;;;5057241;28;20044;-84
2021/07/24 06:38:33;;;;;;;7.38;6.88;;;21.70;63.80;;;;;;5056710;28;20037;-83
2021/07/24 06:41:03;;;;;;;6.90;6.55;;;21.80;62.80;;;;;;5056058;28;20032;-84
2021/07/24 06:43:29;;;;;;;7.15;6.65;;;21.80;62.70;;;;;;5057802;28;20473;-84
2021/07/24 06:45:55;;;;;;;6.63;6.32;;;21.90;62.70;;;;;;5057769;28;20041;-84
2021/07/24 06:48:21;;;;;;;7.07;6.78;;;21.90;62.70;;;;;;5040593;28;20025;-84
2021/07/24 06:50:47;;;;;;;6.50;6.20;;;21.90;62.70;;;;;;5058237;28;20032;-84
2021/07/24 06:53:13;;;;;;;6.90;6.60;;;21.90;62.70;;;;;;5018983;28;20025;-82
2021/07/24 06:55:39;;;;;;;6.80;6.50;;;21.90;62.80;;;;;;5058532;28;20025;-84
2021/07/24 06:58:05;;;;;;;6.30;6.00;;;21.90;62.80;;;;;;5040449;28;20083;-83
2021/07/24 07:00:31;;;;;;;6.97;6.68;;;22.00;62.90;;;;;;5056981;28;20501;-84
2021/07/24 07:03:01;;;;;;;6.57;6.28;;;21.90;62.90;;;;;;5023843;28;20029;-84
2021/07/24 07:05:27;;;;;;;6.50;6.20;;;22.00;62.90;;;;;;5020141;28;20025;-85
2021/07/24 07:07:53;;;;;;;6.32;6.03;;;22.00;62.80;;;;;;5057378;28;20033;-84
2021/07/24 07:10:20;;;;;;;6.20;5.90;;;22.10;62.70;;;;;;5058917;28;20025;-86
2021/07/24 07:12:47;;;;;;;6.60;6.30;;;22.20;62.70;;;;;;5040039;28;20037;-82
2021/07/24 07:15:13;;;;;;;6.20;5.90;;;22.20;62.60;;;;;;5057384;28;20029;-86
2021/07/24 07:17:39;;;;;;;6.10;5.80;;;22.20;62.60;;;;;;5056793;28;20031;-84
2021/07/24 07:20:09;;;;;;;6.05;5.75;;;22.20;62.50;;;;;;5036696;28;20037;-85
2021/07/24 07:22:35;;;;;;;7.30;7.00;;;22.30;62.50;;;;;;5059209;28;20037;-84
2021/07/24 07:25:01;;;;;;;7.20;6.90;;;22.30;62.40;;;;;;5023203;28;20029;-86
2021/07/24 07:27:27;;;;;;;7.00;6.70;;;22.40;62.40;;;;;;5039981;28;20025;-85
2021/07/24 07:29:53;;;;;;;6.80;6.50;;;22.40;62.40;;;;;;5057671;28;20056;-82
2021/07/24 07:32:19;;;;;;;7.00;6.70;;;22.40;62.30;;;;;;5053253;28;20419;-85
2021/07/24 07:34:45;;;;;;;7.85;7.45;;;22.40;62.30;;;;;;5040729;28;20028;-85
2021/07/24 07:37:11;;;;;;;7.82;7.43;;;22.40;62.40;;;;;;5040176;28;20466;-85
2021/07/24 07:39:37;;;;;;;8.65;8.25;;;22.40;62.40;;;;;;5057173;28;20025;-85
2021/07/24 07:42:03;;;;;;;7.90;7.50;;;22.40;62.40;;;;;;5057374;28;20039;-85
2021/07/24 07:44:29;;;;;;;7.95;7.55;;;22.40;62.40;;;;;;5019348;28;20033;-84
2021/07/24 07:46:56;;;;;;;8.25;7.85;;;22.50;62.40;;;;;;5054318;28;20485;-85
2021/07/24 07:49:22;;;;;;;8.93;8.52;;;22.50;62.30;;;;;;5056521;28;20040;-83
2021/07/24 07:51:48;;;;;;;8.55;8.15;;;22.50;62.20;;;;;;5057253;28;20045;-83
2021/07/24 07:54:15;;;;;;;7.53;7.22;;;22.60;62.10;;;;;;5056745;28;20025;-84
2021/07/24 07:56:41;;;;;;;8.55;8.15;;;22.70;62.10;;;;;;5038856;28;20461;-85
2021/07/24 07:59:07;;;;;;;9.30;8.90;;;22.80;61.90;;;;;;5053399;28;20028;-84
2021/07/24 08:01:34;;;;;;;10.57;10.07;;;22.90;61.60;;;;;;5058744;28;20060;-83
2021/07/24 08:04:01;;;;;;;8.07;7.68;;;23.10;61.40;;;;;;5039300;28;20100;-85
2021/07/24 08:06:27;;;;;;;8.35;7.85;;;23.20;61.10;;;;;;5039313;28;20032;-86
2021/07/24 08:08:54;;;;;;;7.25;6.93;;;23.30;60.90;;;;;;5056465;28;20032;-85
2021/07/24 08:11:20;;;;;;;7.97;7.57;;;23.30;60.80;;;;;;5035352;28;20100;-85
2021/07/24 08:13:46;;;;;;;7.97;7.57;;;23.30;60.80;;;;;;5057644;28;20037;-86
2021/07/24 08:16:13;;;;;;;8.38;7.97;;;23.40;60.80;;;;;;5053995;28;20386;-85
2021/07/24 08:18:39;;;;;;;9.02;8.10;;;23.40;60.70;;;;;;5023563;28;20044;-84
2021/07/24 08:21:06;;;;;;;8.10;7.70;;;23.50;60.70;;;;;;5056644;28;20386;-84
2021/07/24 08:23:32;;;;;;;8.68;8.27;;;23.50;60.50;;;;;;5052205;28;20052;-85
2021/07/24 08:25:58;;;;;;;8.23;7.78;;;23.70;60.20;;;;;;5054874;28;20037;-85
2021/07/24 08:28:27;;;;;;;8.70;8.30;;;23.80;60.00;;;;;;5056312;28;20040;-85
2021/07/24 08:30:54;;;;;;;8.82;8.43;;;23.90;59.90;;;;;;5055695;28;20512;-83
2021/07/24 08:33:20;;;;;;;9.48;9.07;;;24.00;59.80;;;;;;5056303;28;20052;-85
2021/07/24 08:35:46;;;;;;;9.35;8.95;;;24.10;59.70;;;;;;5038690;28;20027;-85
2021/07/24 08:38:12;;;;;;;8.55;8.15;;;24.10;59.50;;;;;;5051641;28;20041;-84
2021/07/24 08:40:38;;;;;;;9.32;8.93;;;24.30;59.40;;;;;;5040392;28;20025;-84
2021/07/24 08:43:07;;;;;;;10.35;9.85;;;24.30;59.30;;;;;;5056192;28;20040;-84
2021/07/24 08:45:34;;;;;;;9.63;9.23;;;24.30;59.30;;;;;;5055589;28;20029;-84
2021/07/24 08:48:00;;;;;;;10.50;9.98;;;24.50;59.10;;;;;;5038499;28;20483;-84
2021/07/24 08:50:26;;;;;;;14.13;13.50;;;24.90;58.70;;;;;;5035373;28;20037;-85
2021/07/24 08:52:53;;;;;;;21.60;20.42;;;25.30;58.20;;;;;;5037374;28;20044;-84
2021/07/24 08:55:23;;;;;;;19.90;19.00;;;25.60;57.60;;;;;;5037248;28;20394;-84
2021/07/24 08:57:50;;;;;;;25.38;24.23;;;25.90;57.30;;;;;;5037810;28;20040;-82
2021/07/24 09:00:18;;;;;;;27.13;25.88;;;26.10;56.90;;;;;;5020568;28;20482;-86
2021/07/24 09:02:45;;;;;;;22.42;20.90;;;26.30;56.70;;;;;;5053892;28;20466;-85
2021/07/24 09:05:13;;;;;;;22.88;21.80;;;26.30;56.60;;;;;;5032819;28;20044;-86
2021/07/24 09:07:40;;;;;;;23.48;22.38;;;26.10;56.70;;;;;;5039432;28;20021;-84
2021/07/24 09:10:07;;;;;;;22.77;21.73;;;25.90;57.00;;;;;;5038043;28;20033;-84
2021/07/24 09:12:34;;;;;;;22.05;21.05;;;25.70;57.80;;;;;;5037011;28;20053;-84
2021/07/24 09:15:00;;;;;;;24.52;21.98;;;25.50;57.40;;;;;;5055322;28;20044;-84
2021/07/24 09:17:26;;;;;;;24.65;23.25;;;25.30;57.50;;;;;;5052188;28;20045;-85
2021/07/24 09:19:52;;;;;;;22.30;21.27;;;25.20;57.70;;;;;;5055125;28;20029;-86
2021/07/24 09:22:34;;;;;;;19.13;18.02;;;25.10;57.80;;;;;;5055696;28;20040;-85
2021/07/24 09:25:15;;;;;;;15.27;14.57;;;24.90;57.80;;;;;;5037782;28;20466;-84
2021/07/24 09:27:45;;;;;;;15.73;15.02;;;24.90;57.80;;;;;;5055474;28;20039;-85
2021/07/24 09:30:24;;;;;;;14.00;13.40;;;24.90;57.80;;;;;;5054877;28;20024;-84
2021/07/24 09:33:03;;;;;;;14.68;13.98;;;24.80;57.80;;;;;;5037106;28;20049;-85
2021/07/24 09:35:42;;;;;;;14.25;13.57;;;24.80;57.70;;;;;;5052485;28;20033;-85
2021/07/24 09:38:28;;;;;;;13.63;12.82;;;24.80;57.70;;;;;;5033657;28;20094;-84
2021/07/24 09:40:55;;;;;;;11.15;10.65;;;24.70;57.70;;;;;;5047554;28;20028;-84
2021/07/24 09:43:40;;;;;;;12.68;12.07;;;24.70;57.70;;;;;;5054309;28;20493;-84
2021/07/24 09:46:19;;;;;;;12.25;11.65;;;24.80;57.60;;;;;;5019888;28;20033;-85
2021/07/24 09:48:46;;;;;;;12.30;11.73;;;24.80;57.60;;;;;;5037320;28;20377;-84
2021/07/24 09:51:13;;;;;;;12.23;11.63;;;24.90;57.50;;;;;;5054658;28;20036;-85
2021/07/24 09:53:43;;;;;;;12.65;12.05;;;24.90;57.40;;;;;;5036145;28;20405;-85
2021/07/24 09:56:17;;;;;;;12.35;11.75;;;24.80;57.20;;;;;;5033226;28;20028;-84
2021/07/24 09:58:46;;;;;;;12.88;12.27;;;24.90;57.30;;;;;;5050913;28;20047;-84
2021/07/24 10:01:18;;;;;;;12.38;11.77;;;24.90;57.30;;;;;;5053003;28;20033;-83
2021/07/24 10:03:48;;;;;;;12.98;12.38;;;24.90;57.20;;;;;;5021054;28;20036;-86
2021/07/24 10:06:17;;;;;;;13.65;12.45;;;24.80;57.20;;;;;;5037791;28;20025;-84
2021/07/24 10:08:52;;;;;;;12.68;12.07;;;24.80;57.20;;;;;;5053015;28;20032;-85
2021/07/24 10:11:18;;;;;;;11.65;11.15;;;24.80;57.20;;;;;;5017512;28;20022;-86
2021/07/24 10:13:45;;;;;;;13.35;12.70;;;24.90;57.10;;;;;;5038437;28;20441;-84
2021/07/24 10:16:11;;;;;;;13.75;12.85;;;24.90;57.10;;;;;;5035498;28;20040;-85
2021/07/24 10:18:37;;;;;;;12.60;12.00;;;24.90;57.00;;;;;;5036524;28;20397;-85
2021/07/24 10:21:04;;;;;;;11.95;11.45;;;24.90;57.00;;;;;;5035567;28;20032;-85
2021/07/24 10:23:30;;;;;;;13.32;12.73;;;24.90;56.90;;;;;;5002188;28;20025;-85
2021/07/24 10:25:59;;;;;;;12.75;12.15;;;24.90;56.90;;;;;;5053113;28;20033;-85
2021/07/24 10:28:35;;;;;;;13.43;12.82;;;25.00;56.80;;;;;;5054703;28;20343;-84
2021/07/24 10:31:20;;;;;;;14.32;13.63;;;25.00;56.80;;;;;;5035089;28;20052;-85
2021/07/24 10:33:46;;;;;;;15.90;15.13;;;25.00;56.70;;;;;;5021512;28;20041;-85
2021/07/24 10:36:17;;;;;;;13.05;12.45;;;25.00;57.30;;;;;;5036806;28;20032;-84
2021/07/24 10:38:57;;;;;;;12.13;11.52;;;25.10;56.70;;;;;;5054144;28;20354;-85
2021/07/24 10:41:23;;;;;;;12.97;12.37;;;25.30;56.50;;;;;;5018544;28;20033;-85
2021/07/24 10:44:07;;;;;;;14.32;13.68;;;25.40;56.30;;;;;;5054608;28;20048;-86
2021/07/24 10:46:40;;;;;;;12.52;11.93;;;25.40;56.20;;;;;;5038503;28;20056;-87
2021/07/24 10:49:06;;;;;;;16.05;15.30;;;25.50;56.20;;;;;;5053622;28;20371;-84
2021/07/24 10:51:58;;;;;;;23.90;22.77;;;25.50;56.10;;;;;;5036101;28;20486;-84
2021/07/24 10:54:25;;;;;;;20.52;19.55;;;25.50;56.00;;;;;;5053735;28;20068;-85
2021/07/24 10:56:51;;;;;;;23.33;22.08;;;25.50;56.00;;;;;;5036717;28;20024;-84
2021/07/24 10:59:17;;;;;;;19.60;18.70;;;25.70;55.90;;;;;;5030867;28;20021;-85
2021/07/24 11:01:47;;;;;;;26.90;25.67;;;25.90;55.60;;;;;;5055451;28;20025;-84
2021/07/24 11:04:35;;;;;;;21.13;20.13;;;26.20;55.20;;;;;;5037482;28;20040;-84
2021/07/24 11:07:13;;;;;;;23.88;22.77;;;26.50;54.70;;;;;;5058830;28;20025;-84
2021/07/24 11:09:45;;;;;;;28.35;27.05;;;26.80;54.20;;;;;;5059064;28;20478;-87
2021/07/24 11:12:12;;;;;;;23.35;22.25;;;27.10;53.90;;;;;;5054476;28;20025;-85
2021/07/24 11:14:38;;;;;;;21.13;20.13;;;27.40;53.50;;;;;;5052958;28;20044;-85
2021/07/24 11:17:07;;;;;;;23.00;21.90;;;27.50;53.20;;;;;;5031955;28;20052;-85
2021/07/24 11:19:38;;;;;;;23.45;21.92;;;27.80;53.10;;;;;;5056141;28;20461;-84
2021/07/24 11:22:27;;;;;;;22.25;21.17;;;27.90;52.70;;;;;;5023458;28;20040;-85
2021/07/24 11:24:53;;;;;;;21.85;20.63;;;28.20;52.50;;;;;;5045758;28;20040;-84
2021/07/24 11:27:28;;;;;;;23.90;22.80;;;28.40;52.30;;;;;;5057714;28;20025;-85
2021/07/24 11:30:04;;;;;;;21.10;20.10;;;28.40;52.00;;;;;;5057608;28;20036;-84
2021/07/24 11:32:32;;;;;;;21.30;20.30;;;28.40;52.10;;;;;;5037605;28;20045;-84
2021/07/24 11:34:58;;;;;;;21.17;20.08;;;28.10;52.30;;;;;;5021427;28;20036;-85
2021/07/24 11:37:44;;;;;;;21.38;20.38;;;28.00;52.50;;;;;;5056707;28;20061;-84
2021/07/24 11:40:15;;;;;;;21.92;20.63;;;27.80;52.60;;;;;;5056087;28;20049;-84
2021/07/24 11:42:42;;;;;;;21.42;20.42;;;27.90;52.50;;;;;;5055933;28;20048;-85
2021/07/24 11:45:09;;;;;;;21.25;20.25;;;28.00;52.30;;;;;;5022280;28;20029;-86
2021/07/24 11:47:35;;;;;;;22.35;21.15;;;28.00;52.20;;;;;;5020733;28;20032;-84
2021/07/24 11:50:18;;;;;;;22.83;21.77;;;27.90;52.10;;;;;;5020189;28;20028;-84
2021/07/24 11:52:48;;;;;;;21.83;20.83;;;27.90;52.20;;;;;;5049548;28;20048;-86
2021/07/24 11:55:33;;;;;;;21.53;20.53;;;27.80;52.10;;;;;;5056223;28;20037;-84
2021/07/24 11:57:59;;;;;;;22.05;21.05;;;27.70;52.20;;;;;;5056292;28;20045;-84
2021/07/24 12:00:39;;;;;;;23.10;22.00;;;27.60;52.30;;;;;;5056284;28;20044;-84
2021/07/24 12:03:33;;;;;;;25.48;24.17;;;27.50;52.50;;;;;;5039190;28;20032;-85
2021/07/24 12:06:09;;;;;;;25.13;23.92;;;27.40;52.50;;;;;;5056935;28;20029;-84
2021/07/24 12:08:36;;;;;;;24.58;23.40;;;27.10;52.70;;;;;;5036030;28;20506;-84
2021/07/24 12:11:02;;;;;;;21.88;20.88;;;27.00;52.90;;;;;;5019908;28;20036;-85
2021/07/24 12:13:28;;;;;;;16.35;15.55;;;26.80;53.10;;;;;;5058780;28;20041;-84
2021/07/24 12:15:59;;;;;;;16.58;15.80;;;26.60;53.40;;;;;;5020520;28;20517;-85
2021/07/24 12:18:25;;;;;;;16.40;15.68;;;26.30;53.80;;;;;;5055220;28;20029;-85
2021/07/24 12:20:51;;;;;;;20.15;19.25;;;26.00;54.20;;;;;;5055229;28;20028;-86
2021/07/24 12:23:18;;;;;;;19.17;18.27;;;25.80;54.60;;;;;;5052607;28;20025;-86
2021/07/24 12:25:44;;;;;;;18.90;18.00;;;25.60;54.90;;;;;;5058417;28;20039;-87
2021/07/24 12:28:21;;;;;;;17.15;16.35;;;25.40;55.10;;;;;;5055659;28;20415;-85
2021/07/24 12:30:47;;;;;;;15.80;15.10;;;25.30;55.40;;;;;;5022662;28;20033;-85
2021/07/24 12:33:38;;;;;;;10.85;10.35;;;25.10;55.60;;;;;;5055556;28;20524;-85
2021/07/24 12:36:04;;;;;;;10.32;9.82;;;25.10;55.70;;;;;;5056272;28;20473;-85
2021/07/24 12:38:30;;;;;;;11.70;11.20;;;25.20;55.60;;;;;;5053377;28;20509;-85
2021/07/24 12:41:06;;;;;;;12.23;11.63;;;25.40;55.50;;;;;;5036883;28;20029;-86
2021/07/24 12:43:32;;;;;;;13.57;12.88;;;25.50;55.40;;;;;;5056756;28;20032;-85
2021/07/24 12:46:14;;;;;;;16.10;15.40;;;25.70;55.30;;;;;;5055662;28;20033;-85